Tte. Julio Gallardo Airport
SCNT : rendu visible

Aérodrome :











RETROUVEZ-NOUS SUR...

 
LOGIN :

S'inscrire | Disclaimer

   EN    FR    IT 

 









Légende :    VFR   VFR Marginal   IFR   IFR Intensif   IFR Très Intensif
Visi : 
Plafond : 
>= 8 km
>= 3000ft
5 à 8 km
1000 à 3000 ft
1500m à 5 km
500 à 1000 ft
800 à 1500m
200 à 500 ft
< 800m
< 200 ft
Symboles :   Orages  Brouillard  Fortes neiges  Fortes précipitations  Vent > 20 kt






- Altitude de l'aérodrome : 217 ft
- Code IATA : PNT


SCNT - Tte. Julio Gallardo

DERNIER METAR :
  • 012000Z 22012KT 200V260 9999 VCSH SCT030 06/01 Q1001

METARs EXPIRÉS :
  • 011900Z 21014KT 170V240 9999 VCSH BKN030 06/01 Q1000
  • 011800Z 29022G32KT 260V320 9999 VCSH BKN040 09/03 Q0997

TAF TAF SCNT
Valide du 01 à 12h jusqu'au 02 à 00h UTC


011052Z 0112/0200 33020KT 9000 SCT035 TN01/0200Z TX09/0118Z
TEMPO 0112/0116 7000 -RA SCT020 BKN030
BECMG 0116/0118 23010KT 9999 NSW SCT030
FIR SCCZ / Amérique du Sud



MET'MAP, la Météo Aéronautique d'un coup d'oeil ! - Copyright ORBIFLY Décembre 2007 - Disclaimer

ORBIFLY MET'MAP TEAM :

Programmation & Développement : Alexandra Zaïnal
Sur une idée originale de : Baudouin d'Aumeries
Assistance à la programmation : Marc-Olivier Méhu
Soutien technique & logistique : Manuel Goepfert

Contact : metmap@orbifly.com




SOURCES & CREDITS :

   NOAA       Earth
Advisory